Time;durP1;ratioP1;P1;durP2;ratioP2;P2;SDS_P1;SDS_P2;PMS_P1;PMS_P2;Temp;Humidity;BMP_temperature;BMP_pressure;BME280_temperature;BME280_humidity;BME280_pressure;Samples;Min_cycle;Max_cycle;Signal;HPM_P1;HPM_P2
2021/07/08 07:03:50;;;;;;;5.70;2.83;;;20.50;99.90;;;;;;4144251;28;20393;-72
2021/07/08 07:05:50;;;;;;;9.55;3.10;;;20.60;99.90;;;;;;4151689;28;20052;-72
2021/07/08 07:07:51;;;;;;;4.78;2.78;;;20.70;99.90;;;;;;4143914;28;20068;-72
2021/07/08 07:09:52;;;;;;;6.53;3.20;;;20.70;99.90;;;;;;4138631;28;20560;-73
2021/07/08 07:11:53;;;;;;;5.05;2.50;;;20.70;99.90;;;;;;4141540;28;20129;-72
2021/07/08 07:13:53;;;;;;;3.33;2.45;;;20.80;99.90;;;;;;4151725;28;20096;-73
2021/07/08 07:15:54;;;;;;;7.78;2.70;;;20.80;99.90;;;;;;4150099;28;20128;-72
2021/07/08 07:17:57;;;;;;;6.70;3.08;;;20.80;99.90;;;;;;4148999;28;20033;-72
2021/07/08 07:19:57;;;;;;;3.17;2.30;;;20.90;99.90;;;;;;4142706;28;20125;-73
2021/07/08 07:22:00;;;;;;;4.30;2.90;;;21.00;99.90;;;;;;4143338;28;20073;-73
2021/07/08 07:24:02;;;;;;;3.25;2.42;;;21.10;99.90;;;;;;4148741;28;20045;-72
2021/07/08 07:26:03;;;;;;;4.32;2.60;;;21.10;99.90;;;;;;4150862;28;20587;-72
2021/07/08 07:28:04;;;;;;;4.18;2.40;;;21.20;99.90;;;;;;4145860;28;20038;-73
2021/07/08 07:30:06;;;;;;;5.47;2.85;;;21.20;99.90;;;;;;4150187;28;20504;-72
2021/07/08 07:32:07;;;;;;;4.28;2.80;;;21.30;99.90;;;;;;4151940;28;20053;-72
2021/07/08 07:34:09;;;;;;;3.80;2.60;;;21.30;99.90;;;;;;4147547;28;20122;-73
2021/07/08 07:36:10;;;;;;;4.90;2.40;;;21.40;99.90;;;;;;4151612;28;20080;-72
2021/07/08 07:38:11;;;;;;;3.97;2.60;;;21.40;99.90;;;;;;4146998;28;20041;-73
2021/07/08 07:40:12;;;;;;;5.53;2.63;;;21.50;99.90;;;;;;4148826;28;20026;-72
2021/07/08 07:42:13;;;;;;;4.95;2.92;;;21.60;99.90;;;;;;4150422;28;20037;-72
2021/07/08 07:44:14;;;;;;;7.15;2.92;;;21.60;99.90;;;;;;4148005;28;20467;-73
2021/07/08 07:46:14;;;;;;;6.18;2.80;;;21.70;99.90;;;;;;4148116;28;20502;-73
2021/07/08 07:48:17;;;;;;;5.03;2.72;;;21.70;99.90;;;;;;4141891;28;20030;-73
2021/07/08 07:50:17;;;;;;;6.68;2.60;;;21.70;99.90;;;;;;4147992;28;20050;-73
2021/07/08 07:52:18;;;;;;;5.20;2.65;;;21.80;99.90;;;;;;4148935;28;20433;-72
2021/07/08 07:54:19;;;;;;;4.65;2.30;;;21.80;99.90;;;;;;4149264;28;20116;-72
2021/07/08 07:56:19;;;;;;;3.80;2.38;;;21.80;99.90;;;;;;4149277;28;20501;-73
2021/07/08 07:58:20;;;;;;;4.55;2.40;;;21.90;99.90;;;;;;4146994;28;20604;-73
2021/07/08 08:00:20;;;;;;;5.43;3.03;;;21.90;99.90;;;;;;4148588;28;20053;-73
2021/07/08 08:02:21;;;;;;;3.10;1.98;;;21.90;99.90;;;;;;4147369;28;20163;-73
2021/07/08 08:04:23;;;;;;;6.50;2.22;;;22.00;99.90;;;;;;4149569;28;20041;-72
2021/07/08 08:08:43;;;;;;;3.67;2.15;;;22.10;99.90;;;;;;4147440;28;20056;-72
2021/07/08 08:10:45;;;;;;;3.80;2.10;;;22.20;99.90;;;;;;4147735;28;20103;-72
2021/07/08 08:12:46;;;;;;;5.95;2.30;;;22.20;99.90;;;;;;4143096;28;20148;-73
2021/07/08 08:14:47;;;;;;;4.82;2.30;;;22.20;99.90;;;;;;4139656;28;20038;-72
2021/07/08 08:16:48;;;;;;;3.78;1.95;;;22.20;99.90;;;;;;4134868;28;20119;-72
2021/07/08 08:18:48;;;;;;;3.83;2.10;;;22.30;99.90;;;;;;4138234;28;20042;-72
2021/07/08 08:20:50;;;;;;;4.28;2.13;;;22.30;99.90;;;;;;4138033;28;20548;-73
2021/07/08 08:22:50;;;;;;;4.55;1.77;;;22.30;99.90;;;;;;4136706;28;20069;-73
2021/07/08 08:24:51;;;;;;;3.13;2.13;;;22.40;99.90;;;;;;4138713;28;20037;-72
2021/07/08 08:26:52;;;;;;;4.60;2.13;;;22.40;99.90;;;;;;4139605;28;20034;-72
2021/07/08 08:28:53;;;;;;;4.95;2.45;;;22.40;99.90;;;;;;4136494;28;20544;-72
2021/07/08 08:30:54;;;;;;;4.25;2.25;;;22.40;99.90;;;;;;4137901;28;20532;-72
2021/07/08 08:32:55;;;;;;;6.70;3.00;;;22.50;99.90;;;;;;4134163;28;20069;-73
2021/07/08 08:34:56;;;;;;;4.72;2.10;;;22.50;99.90;;;;;;4138575;28;20045;-73
2021/07/08 08:36:57;;;;;;;4.00;2.33;;;22.50;99.90;;;;;;4133872;28;20046;-72
2021/07/08 08:38:57;;;;;;;5.43;2.58;;;22.60;99.90;;;;;;4136936;28;20056;-73
2021/07/08 08:40:58;;;;;;;2.67;2.03;;;22.60;99.90;;;;;;4138321;28;20528;-72
2021/07/08 08:42:58;;;;;;;5.60;1.80;;;22.70;99.90;;;;;;4135363;28;20053;-73
2021/07/08 08:44:59;;;;;;;3.85;1.90;;;22.70;99.90;;;;;;4127374;28;20042;-73
2021/07/08 08:47:00;;;;;;;2.78;1.73;;;22.70;99.90;;;;;;4131018;28;20054;-73
2021/07/08 08:49:05;;;;;;;4.82;2.00;;;22.80;99.90;;;;;;4108400;28;20074;-73
2021/07/08 08:51:06;;;;;;;5.28;2.13;;;22.80;99.90;;;;;;4134496;28;20042;-73
2021/07/08 08:53:11;;;;;;;2.92;1.50;;;22.90;99.90;;;;;;4137013;28;20030;-73
2021/07/08 08:55:12;;;;;;;3.35;2.00;;;23.00;99.90;;;;;;4130386;28;20117;-73
2021/07/08 08:57:12;;;;;;;2.90;1.98;;;23.10;99.90;;;;;;4137497;28;20108;-72
2021/07/08 08:59:13;;;;;;;3.13;1.45;;;23.20;99.90;;;;;;4123038;28;20109;-72
2021/07/08 09:01:17;;;;;;;4.45;1.90;;;23.20;99.90;;;;;;4135125;28;20030;-73
2021/07/08 09:03:25;;;;;;;4.95;1.95;;;23.30;99.90;;;;;;4137094;28;20078;-73
2021/07/08 09:05:25;;;;;;;3.58;1.85;;;23.30;99.90;;;;;;4137947;28;20588;-73
2021/07/08 09:07:34;;;;;;;3.95;2.08;;;23.40;99.90;;;;;;4125751;28;20035;-72
2021/07/08 09:09:35;;;;;;;6.68;2.47;;;23.40;99.90;;;;;;4135680;28;20254;-73
2021/07/08 09:11:37;;;;;;;6.28;2.33;;;23.40;99.90;;;;;;4136665;28;20085;-73
2021/07/08 09:13:48;;;;;;;4.17;1.80;;;23.40;99.90;;;;;;4136134;28;20046;-72
2021/07/08 09:15:48;;;;;;;4.38;1.50;;;23.50;99.90;;;;;;4137610;28;20058;-72
2021/07/08 09:17:49;;;;;;;2.88;1.70;;;23.60;99.90;;;;;;4138012;28;20473;-72
2021/07/08 09:20:09;;;;;;;2.25;1.20;;;23.60;99.90;;;;;;4128309;28;20037;-72
2021/07/08 09:22:10;;;;;;;2.70;1.90;;;23.70;99.90;;;;;;4136626;28;20049;-73
2021/07/08 09:24:24;;;;;;;2.08;1.20;;;23.80;99.90;;;;;;4133223;28;20026;-72
2021/07/08 09:26:25;;;;;;;3.60;1.50;;;23.80;99.90;;;;;;4125052;28;20049;-73
2021/07/08 09:28:26;;;;;;;2.90;1.52;;;23.80;99.90;;;;;;4126652;28;20333;-73
2021/07/08 09:30:28;;;;;;;2.75;1.33;;;23.90;99.90;;;;;;4138494;28;20034;-73
2021/07/08 09:32:30;;;;;;;;;;;23.90;99.90;;;;;;4134651;28;20050;-73
2021/07/08 09:34:36;;;;;;;3.05;1.48;;;24.00;99.90;;;;;;4129874;28;19926;-73
2021/07/08 09:36:36;;;;;;;3.05;1.38;;;24.00;99.90;;;;;;4136917;28;20042;-73
2021/07/08 09:38:40;;;;;;;3.03;1.48;;;24.00;99.90;;;;;;4135165;28;20352;-73
2021/07/08 09:40:41;;;;;;;3.08;1.48;;;24.10;99.90;;;;;;4134973;28;20101;-73
2021/07/08 09:42:45;;;;;;;3.15;1.50;;;24.10;99.90;;;;;;4136221;28;20052;-73
2021/07/08 09:44:45;;;;;;;6.40;2.42;;;24.10;99.90;;;;;;4137482;28;20033;-73
2021/07/08 09:46:46;;;;;;;3.95;1.65;;;24.20;99.90;;;;;;4136565;28;20483;-73
2021/07/08 09:49:08;;;;;;;6.93;2.20;;;24.30;99.90;;;;;;4133729;28;20037;-73
2021/07/08 09:51:28;;;;;;;2.55;1.60;;;24.30;99.90;;;;;;4136730;28;20038;-73
2021/07/08 09:53:30;;;;;;;3.40;2.03;;;24.40;99.90;;;;;;4136404;28;20954;-73
2021/07/08 09:56:07;;;;;;;3.88;1.90;;;24.50;99.90;;;;;;4135948;28;20045;-73
2021/07/08 09:58:08;;;;;;;3.00;1.60;;;24.50;99.90;;;;;;4136640;28;20073;-73
2021/07/08 10:00:31;;;;;;;3.53;1.55;;;24.60;99.90;;;;;;4136382;28;20037;-73
2021/07/08 10:02:34;;;;;;;3.10;1.58;;;24.70;99.90;;;;;;4128816;28;20044;-73
2021/07/08 10:04:34;;;;;;;2.70;1.48;;;24.70;99.90;;;;;;4136954;28;20057;-73
2021/07/08 10:06:36;;;;;;;3.42;1.60;;;24.70;99.90;;;;;;4136255;28;20070;-73
2021/07/08 10:08:39;;;;;;;2.83;1.73;;;24.70;99.90;;;;;;4132727;28;20041;-73
2021/07/08 10:10:41;;;;;;;3.63;1.60;;;24.70;99.90;;;;;;4130833;28;20482;-73
2021/07/08 10:12:45;;;;;;;4.20;1.63;;;24.80;99.90;;;;;;4133942;28;20044;-73
2021/07/08 10:14:50;;;;;;;1.77;1.20;;;24.80;99.90;;;;;;4134833;28;20038;-73
2021/07/08 10:16:54;;;;;;;6.70;2.30;;;24.90;99.90;;;;;;4133009;28;20107;-73
2021/07/08 10:19:00;;;;;;;2.45;1.50;;;25.00;99.90;;;;;;4138648;28;20026;-73
2021/07/08 10:21:02;;;;;;;2.50;1.45;;;25.10;99.90;;;;;;4129987;28;20108;-73
2021/07/08 10:23:02;;;;;;;6.00;1.60;;;25.10;99.90;;;;;;4129601;28;20078;-73
2021/07/08 10:25:08;;;;;;;2.63;1.73;;;25.20;99.90;;;;;;4126878;28;20041;-73
2021/07/08 10:27:09;;;;;;;3.42;1.70;;;25.20;99.90;;;;;;4135012;28;20045;-73
2021/07/08 10:29:14;;;;;;;3.30;2.00;;;25.20;99.90;;;;;;4136629;28;20037;-73
2021/07/08 10:31:20;;;;;;;3.20;1.95;;;25.20;99.90;;;;;;4135665;28;20091;-73
2021/07/08 10:33:21;;;;;;;4.22;1.80;;;25.20;99.90;;;;;;4133781;28;20064;-73
2021/07/08 10:35:43;;;;;;;5.90;2.00;;;25.20;99.90;;;;;;4135968;28;20086;-73
2021/07/08 10:37:44;;;;;;;3.33;1.92;;;25.30;99.90;;;;;;4133783;28;20034;-73
2021/07/08 10:39:44;;;;;;;6.60;1.98;;;25.30;99.90;;;;;;4136222;28;20121;-73
2021/07/08 10:41:57;;;;;;;1.25;1.15;;;25.20;99.90;;;;;;4132681;28;20038;-73
2021/07/08 10:43:57;;;;;;;1.83;1.35;;;25.30;99.90;;;;;;4136711;28;20374;-73
2021/07/08 10:46:03;;;;;;;3.45;1.98;;;25.40;99.90;;;;;;4132658;28;20603;-71
2021/07/08 10:48:15;;;;;;;3.70;1.90;;;25.40;99.90;;;;;;4126865;28;20088;-71
2021/07/08 10:50:34;;;;;;;3.93;2.13;;;25.40;99.90;;;;;;4134356;28;20034;-71
2021/07/08 10:52:48;;;;;;;4.38;2.03;;;25.40;99.90;;;;;;4134097;28;20029;-71
2021/07/08 10:54:48;;;;;;;4.20;1.90;;;25.30;99.90;;;;;;4134253;28;21071;-71
2021/07/08 10:56:49;;;;;;;3.75;2.03;;;25.40;99.90;;;;;;4134876;28;20038;-71
2021/07/08 10:58:51;;;;;;;4.72;1.65;;;25.40;99.90;;;;;;4135110;28;20129;-71
2021/07/08 11:00:52;;;;;;;4.55;1.73;;;25.40;99.90;;;;;;4135403;28;20549;-73
2021/07/08 11:02:52;;;;;;;4.45;1.92;;;25.40;99.90;;;;;;4135551;28;20100;-73
2021/07/08 11:04:53;;;;;;;3.03;1.92;;;25.30;99.90;;;;;;4136382;28;20091;-73
2021/07/08 11:07:15;;;;;;;4.32;1.50;;;25.30;99.90;;;;;;4135075;28;20392;-73
2021/07/08 11:09:19;;;;;;;5.13;2.25;;;25.30;99.90;;;;;;4124638;28;20034;-73
2021/07/08 11:11:23;;;;;;;3.17;1.60;;;25.30;99.90;;;;;;4135604;28;20540;-73
2021/07/08 11:13:27;;;;;;;3.47;1.90;;;25.30;99.90;;;;;;4132623;28;20038;-73
2021/07/08 11:15:51;;;;;;;1.60;1.50;;;25.30;99.90;;;;;;4135269;28;20159;-73
2021/07/08 11:17:52;;;;;;;4.18;1.90;;;25.30;99.90;;;;;;4132538;28;20104;-73
2021/07/08 11:19:54;;;;;;;2.17;1.50;;;25.30;99.90;;;;;;4136032;28;20053;-73
2021/07/08 11:22:08;;;;;;;3.20;2.00;;;25.30;99.90;;;;;;4134555;28;20660;-73
2021/07/08 11:24:24;;;;;;;3.22;1.50;;;25.30;99.90;;;;;;4135610;28;20208;-73
2021/07/08 11:26:56;;;;;;;3.17;1.73;;;25.30;99.90;;;;;;4129152;28;20046;-73
2021/07/08 11:29:01;;;;;;;3.13;1.80;;;25.30;99.90;;;;;;4135281;28;20161;-73
2021/07/08 11:31:06;;;;;;;3.47;1.88;;;25.40;99.90;;;;;;4131512;28;20030;-73
2021/07/08 11:33:19;;;;;;;5.90;1.85;;;25.40;99.90;;;;;;4137217;28;20402;-73
2021/07/08 11:35:24;;;;;;;2.40;1.60;;;25.40;99.90;;;;;;4133754;28;20046;-73
2021/07/08 11:37:40;;;;;;;3.25;1.70;;;25.40;99.90;;;;;;4135444;28;20506;-73
2021/07/08 11:39:42;;;;;;;2.17;1.73;;;25.40;99.90;;;;;;4134876;28;20041;-73
2021/07/08 11:41:43;;;;;;;3.37;1.80;;;25.40;99.90;;;;;;4125613;28;20033;-73
2021/07/08 11:43:51;;;;;;;1.98;1.50;;;25.40;99.90;;;;;;4126830;28;20261;-73
2021/07/08 11:45:54;;;;;;;2.85;1.70;;;25.40;99.90;;;;;;4134764;28;20100;-73
2021/07/08 11:47:57;;;;;;;4.40;1.42;;;25.40;99.90;;;;;;4135877;28;20042;-73
2021/07/08 11:49:57;;;;;;;4.13;1.63;;;25.40;99.90;;;;;;4125838;28;20146;-73
2021/07/08 11:51:58;;;;;;;3.13;1.83;;;25.40;99.90;;;;;;4126287;28;20058;-73
2021/07/08 11:53:58;;;;;;;4.22;1.60;;;25.40;99.90;;;;;;4136454;28;20037;-73
2021/07/08 11:56:00;;;;;;;1.65;1.30;;;25.40;99.90;;;;;;4137785;28;20038;-73
2021/07/08 11:58:03;;;;;;;5.28;1.95;;;25.40;99.90;;;;;;4138406;28;20485;-73
2021/07/08 12:00:04;;;;;;;3.80;1.80;;;25.40;99.90;;;;;;4130549;28;20042;-73
2021/07/08 12:02:05;;;;;;;2.65;1.20;;;25.40;99.90;;;;;;4134149;28;20046;-73
2021/07/08 12:04:05;;;;;;;2.47;1.42;;;25.40;99.90;;;;;;4138088;28;20383;-73
2021/07/08 12:06:11;;;;;;;2.25;1.30;;;25.40;99.90;;;;;;4137651;28;20145;-73
2021/07/08 12:08:23;;;;;;;3.85;1.50;;;25.40;99.90;;;;;;4125631;28;20041;-73
2021/07/08 12:10:29;;;;;;;3.42;1.67;;;25.40;99.90;;;;;;4126860;28;20938;-73
2021/07/08 12:12:29;;;;;;;4.03;1.75;;;25.30;99.90;;;;;;4136872;28;20112;-73
2021/07/08 12:14:31;;;;;;;3.25;1.58;;;25.30;99.90;;;;;;4138358;28;20170;-73
2021/07/08 12:16:37;;;;;;;3.25;1.88;;;25.30;99.90;;;;;;4138263;28;20417;-73
2021/07/08 12:18:45;;;;;;;2.10;1.35;;;25.20;99.90;;;;;;4129502;28;20093;-73
2021/07/08 12:20:48;;;;;;;2.78;1.40;;;25.30;99.90;;;;;;4135257;28;20037;-73
2021/07/08 12:23:02;;;;;;;2.33;1.20;;;25.30;99.90;;;;;;4137036;28;20038;-73
2021/07/08 12:25:13;;;;;;;2.80;1.02;;;25.30;99.90;;;;;;4136636;28;20069;-73
2021/07/08 12:27:14;;;;;;;2.53;1.52;;;25.30;99.90;;;;;;4135801;28;20029;-73
2021/07/08 12:29:38;;;;;;;3.60;1.15;;;25.30;99.90;;;;;;4133554;28;20124;-73
2021/07/08 12:31:46;;;;;;;2.05;1.20;;;25.30;99.90;;;;;;4136978;28;20029;-73
2021/07/08 12:34:02;;;;;;;2.00;1.30;;;25.30;99.90;;;;;;4136797;28;20077;-73
2021/07/08 12:36:03;;;;;;;3.83;1.67;;;25.30;99.90;;;;;;4130218;28;20043;-72
2021/07/08 12:38:03;;;;;;;3.33;1.48;;;25.20;99.90;;;;;;4137710;28;20133;-73
2021/07/08 12:40:13;;;;;;;2.05;0.95;;;25.20;99.90;;;;;;4136057;28;20725;-73
2021/07/08 12:42:15;;;;;;;1.60;1.05;;;25.20;99.90;;;;;;4120810;28;20113;-73
2021/07/08 12:44:17;;;;;;;3.05;1.65;;;25.20;99.90;;;;;;4138151;28;20038;-73
2021/07/08 12:46:17;;;;;;;3.15;1.45;;;25.20;99.90;;;;;;4133767;28;20088;-73
2021/07/08 12:48:18;;;;;;;1.77;1.45;;;25.20;99.90;;;;;;4133550;28;20045;-73
2021/07/08 12:50:24;;;;;;;3.15;1.75;;;25.20;99.90;;;;;;4139847;28;20033;-73
2021/07/08 12:52:25;;;;;;;2.30;1.20;;;25.10;99.90;;;;;;4137141;28;20506;-73
2021/07/08 12:54:28;;;;;;;4.70;1.85;;;25.10;99.90;;;;;;4136998;28;20057;-73
2021/07/08 12:56:29;;;;;;;3.72;1.40;;;25.10;99.90;;;;;;4132991;28;20398;-73
2021/07/08 12:58:33;;;;;;;2.70;1.70;;;25.10;99.90;;;;;;4136450;28;20095;-73
2021/07/08 13:00:35;;;;;;;3.45;1.40;;;25.00;99.90;;;;;;4133558;28;20074;-73
2021/07/08 13:02:36;;;;;;;3.77;1.50;;;25.00;99.90;;;;;;4133227;28;20049;-73
2021/07/08 13:04:37;;;;;;;2.10;1.20;;;25.10;99.90;;;;;;4138413;28;20268;-72
2021/07/08 13:06:37;;;;;;;3.53;1.42;;;25.10;99.90;;;;;;4129462;28;20359;-73
2021/07/08 13:08:39;;;;;;;2.33;1.50;;;25.00;99.90;;;;;;4137587;28;20437;-73
2021/07/08 13:11:07;;;;;;;5.05;1.55;;;25.00;99.90;;;;;;4137693;28;20034;-73
2021/07/08 13:13:07;;;;;;;1.75;1.45;;;24.90;99.90;;;;;;4132583;28;20139;-73
2021/07/08 13:15:22;;;;;;;2.13;1.33;;;25.00;99.90;;;;;;4139488;28;20049;-73
2021/07/08 13:17:31;;;;;;;3.40;1.45;;;24.90;99.90;;;;;;4135684;28;20041;-73
2021/07/08 13:19:35;;;;;;;2.55;1.63;;;24.90;99.90;;;;;;4137182;28;20200;-73
2021/07/08 13:21:41;;;;;;;2.22;1.38;;;24.90;99.90;;;;;;4137804;28;20382;-73
2021/07/08 13:23:43;;;;;;;2.20;1.52;;;24.90;99.90;;;;;;4134612;28;20048;-73
2021/07/08 13:25:47;;;;;;;3.97;1.90;;;24.90;99.90;;;;;;4135728;28;20525;-73
2021/07/08 13:27:53;;;;;;;1.73;1.23;;;24.90;99.90;;;;;;4137199;28;20490;-73
2021/07/08 13:29:54;;;;;;;3.13;1.70;;;24.80;99.90;;;;;;4135361;28;20037;-73
2021/07/08 13:31:54;;;;;;;2.47;1.60;;;24.80;99.90;;;;;;4137612;28;20108;-73
2021/07/08 13:34:00;;;;;;;4.88;1.80;;;24.80;99.90;;;;;;4135901;28;20042;-73
2021/07/08 13:36:13;;;;;;;4.25;1.75;;;24.80;99.90;;;;;;4135966;28;20046;-73
2021/07/08 13:38:15;;;;;;;;;;;24.80;99.90;;;;;;4137158;28;20389;-73
2021/07/08 13:40:19;;;;;;;2.50;1.52;;;24.80;99.90;;;;;;4139640;28;19909;-73
2021/07/08 13:42:28;;;;;;;3.70;1.70;;;24.70;99.90;;;;;;4136000;28;20176;-73
2021/07/08 13:44:31;;;;;;;3.45;1.80;;;24.80;99.90;;;;;;4131908;28;21820;-73
2021/07/08 13:46:43;;;;;;;4.95;1.80;;;24.80;99.90;;;;;;4136468;28;20041;-73
2021/07/08 13:48:46;;;;;;;1.85;1.50;;;24.70;99.90;;;;;;4127653;28;20073;-73
2021/07/08 13:50:47;;;;;;;3.70;1.60;;;24.80;99.90;;;;;;4134659;28;20038;-73
2021/07/08 13:52:48;;;;;;;1.80;1.42;;;24.70;99.90;;;;;;4136276;28;20042;-73
2021/07/08 13:54:48;;;;;;;1.63;1.33;;;24.70;99.90;;;;;;4135076;28;20120;-73
2021/07/08 13:56:54;;;;;;;3.33;1.63;;;24.70;99.90;;;;;;4133676;28;20026;-73
2021/07/08 13:58:54;;;;;;;3.30;1.60;;;24.70;99.90;;;;;;4128505;28;20402;-73
2021/07/08 14:00:56;;;;;;;4.07;1.75;;;24.70;99.90;;;;;;4118013;28;20034;-73
2021/07/08 14:02:56;;;;;;;2.88;1.50;;;24.70;99.90;;;;;;4124679;28;21219;-73
2021/07/08 14:04:57;;;;;;;3.92;1.90;;;24.70;99.90;;;;;;4133978;28;20061;-73
2021/07/08 14:06:58;;;;;;;5.65;2.00;;;24.70;99.90;;;;;;4136686;28;20491;-73
2021/07/08 14:08:59;;;;;;;3.45;1.88;;;24.70;99.90;;;;;;4132567;28;20042;-73
2021/07/08 14:11:00;;;;;;;4.10;2.10;;;24.70;99.90;;;;;;4134239;28;20045;-73
2021/07/08 14:13:03;;;;;;;3.95;2.25;;;24.60;99.90;;;;;;4134803;28;20127;-73
2021/07/08 14:15:04;;;;;;;6.40;2.28;;;24.60;99.90;;;;;;4134256;28;20042;-73
2021/07/08 14:17:06;;;;;;;5.85;2.22;;;24.50;99.90;;;;;;4127156;28;20034;-73
2021/07/08 14:19:07;;;;;;;2.58;1.80;;;24.60;99.90;;;;;;4135148;28;20398;-73
2021/07/08 14:21:08;;;;;;;4.22;2.00;;;24.50;99.90;;;;;;4125202;28;20042;-73
2021/07/08 14:23:08;;;;;;;4.05;2.42;;;24.60;99.90;;;;;;4119522;28;20426;-73
2021/07/08 14:25:09;;;;;;;4.25;2.00;;;24.60;99.90;;;;;;4136627;28;20121;-73
2021/07/08 14:27:11;;;;;;;5.80;2.30;;;24.60;99.90;;;;;;4134638;28;20498;-73
2021/07/08 14:29:12;;;;;;;3.72;2.33;;;24.60;99.90;;;;;;4131354;28;20406;-73
2021/07/08 14:31:13;;;;;;;2.15;1.80;;;24.60;99.90;;;;;;4122416;28;20227;-73
2021/07/08 14:33:16;;;;;;;4.53;2.35;;;24.60;99.90;;;;;;4133367;28;20141;-73
2021/07/08 14:35:17;;;;;;;3.85;2.65;;;24.50;99.90;;;;;;4135254;28;20040;-73
2021/07/08 14:37:17;;;;;;;4.00;2.47;;;24.50;99.90;;;;;;4127321;28;20777;-73
2021/07/08 14:39:18;;;;;;;2.20;2.00;;;24.50;99.90;;;;;;4126377;28;20038;-73
2021/07/08 14:41:19;;;;;;;2.80;2.30;;;24.60;99.90;;;;;;4136072;28;20040;-73
2021/07/08 14:43:46;;;;;;;3.88;2.33;;;24.60;99.90;;;;;;4128886;28;20046;-73
2021/07/08 14:45:47;;;;;;;2.58;2.00;;;24.60;99.90;;;;;;4132621;28;20040;-73
2021/07/08 14:47:49;;;;;;;4.65;2.28;;;24.60;99.90;;;;;;4135980;28;20108;-73
2021/07/08 14:49:50;;;;;;;2.78;1.92;;;24.60;99.90;;;;;;4133760;28;20699;-72
2021/07/08 14:51:51;;;;;;;3.63;2.33;;;24.60;99.90;;;;;;4136065;28;20102;-73
2021/07/08 14:53:53;;;;;;;4.07;2.40;;;24.60;99.90;;;;;;4135205;28;20054;-73
2021/07/08 14:55:54;;;;;;;3.88;2.20;;;24.60;99.90;;;;;;4135401;28;20091;-73
2021/07/08 14:57:55;;;;;;;4.78;2.47;;;24.60;99.90;;;;;;4135616;28;20665;-73
2021/07/08 14:59:55;;;;;;;5.72;2.25;;;24.60;99.90;;;;;;4137193;28;20475;-73
2021/07/08 15:01:56;;;;;;;4.85;2.97;;;24.60;99.90;;;;;;4133156;28;20615;-73
2021/07/08 15:03:57;;;;;;;4.05;2.80;;;24.60;99.90;;;;;;4130855;28;20076;-73
2021/07/08 15:05:59;;;;;;;2.78;2.42;;;24.60;99.90;;;;;;4135417;28;20068;-73
2021/07/08 15:08:00;;;;;;;6.10;3.05;;;24.50;99.90;;;;;;4134762;28;20050;-73
2021/07/08 15:10:01;;;;;;;6.18;2.75;;;24.50;99.90;;;;;;4135246;28;20042;-72
2021/07/08 15:12:02;;;;;;;4.68;2.85;;;24.50;99.90;;;;;;4135511;28;20117;-73
2021/07/08 15:14:02;;;;;;;4.25;2.58;;;24.50;99.90;;;;;;4133870;28;20072;-73
2021/07/08 15:16:07;;;;;;;3.95;2.55;;;24.50;99.90;;;;;;4135048;28;20668;-73
2021/07/08 15:18:08;;;;;;;4.18;2.67;;;24.50;99.90;;;;;;4128173;28;20149;-73
2021/07/08 15:20:09;;;;;;;4.97;2.88;;;24.50;99.90;;;;;;4132975;28;20057;-73
2021/07/08 15:22:10;;;;;;;4.00;3.13;;;24.50;99.90;;;;;;4133128;28;20498;-73
2021/07/08 15:24:11;;;;;;;3.50;2.63;;;24.50;99.90;;;;;;4135044;28;20080;-72
2021/07/08 15:26:11;;;;;;;4.10;2.63;;;24.50;99.90;;;;;;4139737;28;20042;-72
2021/07/08 15:28:12;;;;;;;6.40;3.35;;;24.50;99.90;;;;;;4135450;28;20053;-73
2021/07/08 15:30:13;;;;;;;4.05;2.75;;;24.50;99.90;;;;;;4136171;28;20038;-73
2021/07/08 15:32:14;;;;;;;9.18;3.30;;;24.50;99.90;;;;;;4133600;28;20046;-73
2021/07/08 15:34:16;;;;;;;3.83;2.92;;;24.50;99.90;;;;;;4136404;28;20041;-73
2021/07/08 15:36:16;;;;;;;4.80;3.35;;;24.50;99.90;;;;;;4138820;28;20118;-73
2021/07/08 15:38:17;;;;;;;5.43;2.70;;;24.50;99.90;;;;;;4136725;28;20053;-73
2021/07/08 15:40:18;;;;;;;5.22;2.38;;;24.50;99.90;;;;;;4132513;28;20034;-73
2021/07/08 15:42:19;;;;;;;8.90;3.63;;;24.50;99.90;;;;;;4136553;28;20057;-73
2021/07/08 15:44:20;;;;;;;5.53;3.38;;;24.50;99.90;;;;;;4136347;28;20398;-73
2021/07/08 15:46:22;;;;;;;4.20;3.10;;;24.50;99.90;;;;;;4138239;28;20427;-73
2021/07/08 15:48:22;;;;;;;5.00;2.83;;;24.40;99.90;;;;;;4137089;28;20034;-73
2021/07/08 15:50:23;;;;;;;3.88;2.58;;;24.40;99.90;;;;;;4138143;28;20033;-72
2021/07/08 15:52:24;;;;;;;5.13;2.72;;;24.40;99.90;;;;;;4137629;28;20512;-73
2021/07/08 15:54:24;;;;;;;6.07;3.03;;;24.40;99.90;;;;;;4133656;28;20072;-73
2021/07/08 15:56:25;;;;;;;6.53;3.08;;;24.40;99.90;;;;;;4138382;28;20030;-73
2021/07/08 15:58:25;;;;;;;5.72;2.95;;;24.30;99.90;;;;;;4138275;28;20080;-73
2021/07/08 16:00:26;;;;;;;4.13;2.90;;;24.30;99.90;;;;;;4137634;28;20052;-73
2021/07/08 16:02:27;;;;;;;5.30;2.95;;;24.30;99.90;;;;;;4137557;28;20046;-73
2021/07/08 16:04:27;;;;;;;4.15;2.60;;;24.20;99.90;;;;;;4137448;28;20042;-73
2021/07/08 16:06:28;;;;;;;6.63;3.63;;;24.30;99.90;;;;;;4131905;28;20033;-73
2021/07/08 16:08:28;;;;;;;6.38;3.35;;;24.20;99.90;;;;;;4138070;28;20444;-73
2021/07/08 16:10:29;;;;;;;3.63;2.40;;;24.10;99.90;;;;;;4137465;28;20038;-73
2021/07/08 16:12:29;;;;;;;4.43;2.97;;;24.10;99.90;;;;;;4137479;28;20060;-73
2021/07/08 16:14:30;;;;;;;5.72;3.10;;;24.20;99.90;;;;;;4137377;28;20030;-73
2021/07/08 16:16:31;;;;;;;5.00;3.03;;;24.10;99.90;;;;;;4136034;28;20030;-73
2021/07/08 16:18:32;;;;;;;4.53;3.03;;;24.10;99.90;;;;;;4136238;28;20471;-73
2021/07/08 16:20:32;;;;;;;5.32;2.72;;;24.00;99.90;;;;;;4136935;28;20153;-73
2021/07/08 16:22:33;;;;;;;3.60;2.63;;;24.00;99.90;;;;;;4137635;28;20044;-72
2021/07/08 16:24:34;;;;;;;6.07;3.00;;;24.00;99.90;;;;;;4137289;28;20692;-73
2021/07/08 16:26:34;;;;;;;7.05;3.33;;;24.00;99.90;;;;;;4135894;28;20038;-73
2021/07/08 16:28:35;;;;;;;5.57;3.38;;;24.00;99.90;;;;;;4137247;28;20136;-72
2021/07/08 16:30:39;;;;;;;6.93;3.38;;;24.00;99.90;;;;;;4136220;28;20062;-74
2021/07/08 16:32:41;;;;;;;4.05;2.70;;;23.90;99.90;;;;;;4137423;28;20375;-73
2021/07/08 16:34:42;;;;;;;3.70;2.60;;;24.00;99.90;;;;;;4135523;28;20034;-73
2021/07/08 16:36:42;;;;;;;3.40;2.38;;;24.00;99.90;;;;;;4136401;28;20026;-73
2021/07/08 16:38:44;;;;;;;3.85;2.97;;;23.90;99.90;;;;;;4139069;28;20042;-73
2021/07/08 16:40:45;;;;;;;3.22;2.60;;;23.90;99.90;;;;;;4136939;28;20402;-73
2021/07/08 16:42:45;;;;;;;4.05;2.53;;;23.90;99.90;;;;;;4136374;28;20034;-73
2021/07/08 16:44:46;;;;;;;3.80;2.45;;;23.90;99.90;;;;;;4136866;28;20409;-73
2021/07/08 16:46:46;;;;;;;3.85;2.67;;;23.90;99.90;;;;;;4137939;28;20084;-73
2021/07/08 16:48:47;;;;;;;2.53;2.25;;;23.90;99.90;;;;;;4138001;28;20034;-73
2021/07/08 16:50:49;;;;;;;5.07;2.70;;;24.00;99.90;;;;;;4136584;28;20030;-74
2021/07/08 16:52:49;;;;;;;5.07;3.10;;;23.90;99.90;;;;;;4137198;28;20048;-73
2021/07/08 16:54:50;;;;;;;8.15;2.67;;;23.90;99.90;;;;;;4137824;28;20042;-73
2021/07/08 16:56:51;;;;;;;3.17;2.55;;;24.00;99.90;;;;;;4135253;28;20654;-73
2021/07/08 16:58:51;;;;;;;3.63;2.50;;;24.00;99.90;;;;;;4137717;28;20038;-73
2021/07/08 17:00:52;;;;;;;4.40;2.67;;;24.00;99.90;;;;;;4135303;28;20041;-73
2021/07/08 17:02:54;;;;;;;3.83;2.67;;;23.90;99.90;;;;;;4137719;28;20076;-73
2021/07/08 17:04:55;;;;;;;3.45;2.47;;;23.90;99.90;;;;;;4137114;28;20042;-72
2021/07/08 17:06:57;;;;;;;4.47;2.65;;;23.90;99.90;;;;;;4127222;28;20125;-73
2021/07/08 17:08:58;;;;;;;4.45;2.70;;;23.90;99.90;;;;;;4130182;28;20043;-73
2021/07/08 17:11:00;;;;;;;4.82;2.50;;;23.90;99.90;;;;;;4135494;28;20050;-73
2021/07/08 17:13:00;;;;;;;5.82;3.03;;;23.90;99.90;;;;;;4122115;28;20930;-73
2021/07/08 17:15:01;;;;;;;4.28;2.50;;;23.90;99.90;;;;;;4138462;28;20046;-73
2021/07/08 17:17:03;;;;;;;3.90;2.40;;;23.90;99.90;;;;;;4137244;28;20034;-73
2021/07/08 17:19:04;;;;;;;3.20;2.45;;;23.80;99.90;;;;;;4137468;28;20092;-73
2021/07/08 17:21:06;;;;;;;3.85;2.60;;;23.80;99.90;;;;;;4137924;28;20046;-73
2021/07/08 17:23:07;;;;;;;5.88;2.72;;;23.80;99.90;;;;;;4138050;28;20099;-73
2021/07/08 17:25:09;;;;;;;3.03;2.35;;;23.80;99.90;;;;;;4137977;28;20371;-73
2021/07/08 17:27:09;;;;;;;2.83;2.35;;;23.80;99.90;;;;;;4131269;28;20034;-73
2021/07/08 17:29:10;;;;;;;4.90;2.20;;;23.80;99.90;;;;;;4135645;28;20045;-73
2021/07/08 17:31:11;;;;;;;4.50;2.85;;;23.80;99.90;;;;;;4138335;28;20390;-73
2021/07/08 17:33:11;;;;;;;3.88;2.33;;;23.80;99.90;;;;;;4136102;28;20053;-73
2021/07/08 17:35:12;;;;;;;5.22;2.85;;;23.80;99.90;;;;;;4135784;28;20049;-73
2021/07/08 17:37:14;;;;;;;3.50;2.33;;;23.80;99.90;;;;;;4134755;28;20033;-73
2021/07/08 17:39:14;;;;;;;3.75;2.58;;;23.70;99.90;;;;;;4126873;28;20070;-73
2021/07/08 17:41:15;;;;;;;3.08;2.28;;;23.80;99.90;;;;;;4133126;28;20049;-73
2021/07/08 17:43:16;;;;;;;3.50;2.58;;;23.70;99.90;;;;;;4136468;28;20066;-72
2021/07/08 17:45:20;;;;;;;3.25;2.50;;;23.70;99.90;;;;;;4136367;28;20029;-72
2021/07/08 17:47:20;;;;;;;3.65;2.88;;;23.70;99.90;;;;;;4136511;28;20060;-73